sensor_id;sensor_type;location;lat;lon;timestamp;pressure;altitude;pressure_sealevel;temperature;humidity
11985;BME280;6052;53.246;10.368;2023-05-25T00:02:17;101949.88;;;15.65;81.94
11985;BME280;6052;53.246;10.368;2023-05-25T00:04:50;101951.94;;;15.86;80.54
11985;BME280;6052;53.246;10.368;2023-05-25T00:07:20;101954.78;;;15.80;80.51
11985;BME280;6052;53.246;10.368;2023-05-25T00:09:49;101947.50;;;15.80;80.81
11985;BME280;6052;53.246;10.368;2023-05-25T00:12:19;101942.31;;;15.79;80.23
11985;BME280;6052;53.246;10.368;2023-05-25T00:14:51;101943.31;;;15.61;81.01
11985;BME280;6052;53.246;10.368;2023-05-25T00:17:20;101942.88;;;15.81;80.61
11985;BME280;6052;53.246;10.368;2023-05-25T00:19:50;101948.72;;;15.89;80.16
11985;BME280;6052;53.246;10.368;2023-05-25T00:22:23;101953.72;;;15.81;80.37
11985;BME280;6052;53.246;10.368;2023-05-25T00:24:54;101948.44;;;16.02;79.26
11985;BME280;6052;53.246;10.368;2023-05-25T00:27:24;101948.63;;;15.84;80.19
11985;BME280;6052;53.246;10.368;2023-05-25T00:29:56;101944.06;;;15.85;79.75
11985;BME280;6052;53.246;10.368;2023-05-25T00:32:25;101945.50;;;15.76;80.38
11985;BME280;6052;53.246;10.368;2023-05-25T00:34:55;101943.91;;;15.91;79.20
11985;BME280;6052;53.246;10.368;2023-05-25T00:37:24;101951.72;;;15.88;79.45
11985;BME280;6052;53.246;10.368;2023-05-25T00:39:53;101941.38;;;15.73;79.97
11985;BME280;6052;53.246;10.368;2023-05-25T00:42:23;101948.41;;;15.86;79.90
11985;BME280;6052;53.246;10.368;2023-05-25T00:44:56;101942.56;;;16.05;78.99
11985;BME280;6052;53.246;10.368;2023-05-25T00:47:26;101943.81;;;15.86;78.97
11985;BME280;6052;53.246;10.368;2023-05-25T00:49:56;101940.38;;;15.91;78.69
11985;BME280;6052;53.246;10.368;2023-05-25T00:52:26;101944.41;;;15.77;80.40
11985;BME280;6052;53.246;10.368;2023-05-25T00:54:58;101947.38;;;15.75;80.20
11985;BME280;6052;53.246;10.368;2023-05-25T00:57:30;101945.19;;;15.61;80.82
11985;BME280;6052;53.246;10.368;2023-05-25T01:00:07;101939.31;;;15.52;80.76
11985;BME280;6052;53.246;10.368;2023-05-25T01:02:39;101949.53;;;15.62;80.49
11985;BME280;6052;53.246;10.368;2023-05-25T01:05:11;101945.97;;;15.73;80.25
11985;BME280;6052;53.246;10.368;2023-05-25T01:07:43;101944.31;;;15.72;80.33
11985;BME280;6052;53.246;10.368;2023-05-25T01:10:14;101940.84;;;15.48;80.90
11985;BME280;6052;53.246;10.368;2023-05-25T01:12:45;101944.25;;;15.55;80.71
11985;BME280;6052;53.246;10.368;2023-05-25T01:15:17;101955.47;;;15.47;81.17
11985;BME280;6052;53.246;10.368;2023-05-25T01:17:50;101960.63;;;15.03;83.36
11985;BME280;6052;53.246;10.368;2023-05-25T01:20:25;101966.25;;;15.24;83.06
11985;BME280;6052;53.246;10.368;2023-05-25T01:23:01;101956.97;;;15.20;82.78
11985;BME280;6052;53.246;10.368;2023-05-25T01:25:37;101957.81;;;15.21;82.92
11985;BME280;6052;53.246;10.368;2023-05-25T01:28:12;101961.91;;;15.23;82.93
11985;BME280;6052;53.246;10.368;2023-05-25T01:30:45;101948.75;;;15.27;82.25
11985;BME280;6052;53.246;10.368;2023-05-25T01:33:17;101947.94;;;15.15;83.31
11985;BME280;6052;53.246;10.368;2023-05-25T01:35:47;101952.75;;;15.01;84.60
11985;BME280;6052;53.246;10.368;2023-05-25T01:38:19;101949.13;;;15.07;83.80
11985;BME280;6052;53.246;10.368;2023-05-25T01:40:49;101955.09;;;15.21;82.39
11985;BME280;6052;53.246;10.368;2023-05-25T01:43:18;101953.34;;;15.15;82.30
11985;BME280;6052;53.246;10.368;2023-05-25T01:45:48;101950.41;;;14.93;84.34
11985;BME280;6052;53.246;10.368;2023-05-25T01:48:23;101945.56;;;14.95;83.84
11985;BME280;6052;53.246;10.368;2023-05-25T01:50:58;101952.16;;;15.11;82.79
11985;BME280;6052;53.246;10.368;2023-05-25T01:53:35;101950.38;;;15.16;82.42
11985;BME280;6052;53.246;10.368;2023-05-25T01:56:07;101942.19;;;15.00;83.44
11985;BME280;6052;53.246;10.368;2023-05-25T01:58:38;101950.75;;;14.97;83.67
11985;BME280;6052;53.246;10.368;2023-05-25T02:01:14;101957.13;;;15.02;83.56
11985;BME280;6052;53.246;10.368;2023-05-25T02:03:48;101948.88;;;14.97;83.22
11985;BME280;6052;53.246;10.368;2023-05-25T02:06:18;101952.63;;;15.08;82.80
11985;BME280;6052;53.246;10.368;2023-05-25T02:08:50;101956.50;;;15.00;83.22
11985;BME280;6052;53.246;10.368;2023-05-25T02:11:20;101961.56;;;14.85;84.87
11985;BME280;6052;53.246;10.368;2023-05-25T02:13:49;101956.50;;;15.00;83.02
11985;BME280;6052;53.246;10.368;2023-05-25T02:16:20;101949.91;;;14.96;84.02
11985;BME280;6052;53.246;10.368;2023-05-25T02:18:50;101949.44;;;14.88;85.40
11985;BME280;6052;53.246;10.368;2023-05-25T02:21:19;101955.09;;;14.86;85.30
11985;BME280;6052;53.246;10.368;2023-05-25T02:23:51;101953.91;;;14.94;84.29
11985;BME280;6052;53.246;10.368;2023-05-25T02:26:23;101949.00;;;14.91;85.27
11985;BME280;6052;53.246;10.368;2023-05-25T02:28:52;101945.91;;;14.87;85.51
11985;BME280;6052;53.246;10.368;2023-05-25T02:31:22;101945.91;;;14.87;84.80
11985;BME280;6052;53.246;10.368;2023-05-25T02:33:55;101958.50;;;14.82;85.51
11985;BME280;6052;53.246;10.368;2023-05-25T02:36:27;101951.66;;;14.68;86.81
11985;BME280;6052;53.246;10.368;2023-05-25T02:39:00;101945.81;;;14.71;87.02
11985;BME280;6052;53.246;10.368;2023-05-25T02:41:29;101948.88;;;14.86;86.31
11985;BME280;6052;53.246;10.368;2023-05-25T02:43:59;101947.56;;;14.65;87.39
11985;BME280;6052;53.246;10.368;2023-05-25T02:46:28;101941.94;;;14.78;86.90
11985;BME280;6052;53.246;10.368;2023-05-25T02:49:00;101950.03;;;14.78;86.10
11985;BME280;6052;53.246;10.368;2023-05-25T02:51:29;101955.81;;;14.82;86.42
11985;BME280;6052;53.246;10.368;2023-05-25T02:54:01;101950.47;;;14.64;87.38
11985;BME280;6052;53.246;10.368;2023-05-25T02:56:31;101958.38;;;14.77;86.93
11985;BME280;6052;53.246;10.368;2023-05-25T02:59:01;101954.50;;;14.84;86.18
11985;BME280;6052;53.246;10.368;2023-05-25T03:01:30;101950.25;;;14.65;87.82
11985;BME280;6052;53.246;10.368;2023-05-25T03:04:00;101954.84;;;14.76;86.54
11985;BME280;6052;53.246;10.368;2023-05-25T03:06:30;101954.84;;;14.76;87.20
11985;BME280;6052;53.246;10.368;2023-05-25T03:09:04;101951.69;;;14.79;86.40
11985;BME280;6052;53.246;10.368;2023-05-25T03:11:35;101954.50;;;14.73;86.41
11985;BME280;6052;53.246;10.368;2023-05-25T03:14:04;101952.50;;;14.68;87.76
11985;BME280;6052;53.246;10.368;2023-05-25T03:16:33;101962.28;;;14.81;86.37
11985;BME280;6052;53.246;10.368;2023-05-25T03:19:04;101957.56;;;14.76;87.15
11985;BME280;6052;53.246;10.368;2023-05-25T03:21:36;101957.53;;;14.65;86.86
11985;BME280;6052;53.246;10.368;2023-05-25T03:24:08;101959.63;;;14.51;88.43
11985;BME280;6052;53.246;10.368;2023-05-25T03:26:37;101968.59;;;14.75;86.96
11985;BME280;6052;53.246;10.368;2023-05-25T03:29:07;101971.66;;;14.67;87.49
11985;BME280;6052;53.246;10.368;2023-05-25T03:31:36;101971.06;;;14.76;86.24
11985;BME280;6052;53.246;10.368;2023-05-25T03:34:06;101967.75;;;14.63;87.62
11985;BME280;6052;53.246;10.368;2023-05-25T03:36:35;101968.94;;;14.67;87.54
11985;BME280;6052;53.246;10.368;2023-05-25T03:39:08;101978.00;;;14.84;85.63
11985;BME280;6052;53.246;10.368;2023-05-25T03:41:37;101962.41;;;14.86;85.51
11985;BME280;6052;53.246;10.368;2023-05-25T03:44:08;101968.47;;;14.70;86.66
11985;BME280;6052;53.246;10.368;2023-05-25T03:46:38;101975.03;;;14.62;87.30
11985;BME280;6052;53.246;10.368;2023-05-25T03:49:07;101973.19;;;14.74;85.92
11985;BME280;6052;53.246;10.368;2023-05-25T03:51:39;101974.00;;;14.75;86.24
11985;BME280;6052;53.246;10.368;2023-05-25T03:54:11;101979.28;;;14.70;86.80
11985;BME280;6052;53.246;10.368;2023-05-25T03:56:41;101983.03;;;14.69;86.83
11985;BME280;6052;53.246;10.368;2023-05-25T03:59:10;101974.09;;;14.57;87.82
11985;BME280;6052;53.246;10.368;2023-05-25T04:01:40;101976.97;;;14.73;86.67
11985;BME280;6052;53.246;10.368;2023-05-25T04:04:09;101979.38;;;14.52;88.68
11985;BME280;6052;53.246;10.368;2023-05-25T04:06:39;101981.47;;;14.50;88.99
11985;BME280;6052;53.246;10.368;2023-05-25T04:09:14;101984.78;;;14.52;89.02
11985;BME280;6052;53.246;10.368;2023-05-25T04:11:44;101990.16;;;14.40;89.39
11985;BME280;6052;53.246;10.368;2023-05-25T04:14:13;101986.81;;;14.38;89.84
11985;BME280;6052;53.246;10.368;2023-05-25T04:16:42;102001.66;;;14.47;89.58
11985;BME280;6052;53.246;10.368;2023-05-25T04:19:12;102003.97;;;14.32;89.26
11985;BME280;6052;53.246;10.368;2023-05-25T04:21:42;102002.09;;;14.33;90.15
11985;BME280;6052;53.246;10.368;2023-05-25T04:24:13;102001.88;;;14.34;91.05
11985;BME280;6052;53.246;10.368;2023-05-25T04:26:43;102004.13;;;14.19;91.56
11985;BME280;6052;53.246;10.368;2023-05-25T04:29:12;102001.75;;;13.93;92.99
11985;BME280;6052;53.246;10.368;2023-05-25T04:31:42;102002.69;;;14.35;91.64
11985;BME280;6052;53.246;10.368;2023-05-25T04:34:13;102007.06;;;14.47;90.07
11985;BME280;6052;53.246;10.368;2023-05-25T04:36:42;102007.50;;;14.33;91.08
11985;BME280;6052;53.246;10.368;2023-05-25T04:39:15;102001.88;;;14.46;90.02
11985;BME280;6052;53.246;10.368;2023-05-25T04:41:45;102013.22;;;14.25;91.03
11985;BME280;6052;53.246;10.368;2023-05-25T04:44:14;102015.34;;;14.23;91.23
11985;BME280;6052;53.246;10.368;2023-05-25T04:46:45;102020.78;;;14.34;90.35
11985;BME280;6052;53.246;10.368;2023-05-25T04:49:14;102018.81;;;14.41;90.93
11985;BME280;6052;53.246;10.368;2023-05-25T04:51:44;102017.03;;;14.35;92.27
11985;BME280;6052;53.246;10.368;2023-05-25T04:54:16;102019.50;;;14.37;91.72
11985;BME280;6052;53.246;10.368;2023-05-25T04:56:46;102015.38;;;14.34;91.17
11985;BME280;6052;53.246;10.368;2023-05-25T04:59:15;102031.44;;;14.59;90.46
11985;BME280;6052;53.246;10.368;2023-05-25T05:01:44;102025.06;;;14.53;89.29
11985;BME280;6052;53.246;10.368;2023-05-25T05:04:14;102040.50;;;14.64;89.03
11985;BME280;6052;53.246;10.368;2023-05-25T05:06:43;102041.19;;;14.60;89.69
11985;BME280;6052;53.246;10.368;2023-05-25T05:09:16;102046.69;;;14.24;92.23
11985;BME280;6052;53.246;10.368;2023-05-25T05:11:45;102049.09;;;14.43;91.74
11985;BME280;6052;53.246;10.368;2023-05-25T05:14:15;102041.69;;;14.39;91.08
11985;BME280;6052;53.246;10.368;2023-05-25T05:16:45;102051.44;;;14.40;90.41
11985;BME280;6052;53.246;10.368;2023-05-25T05:19:15;102053.63;;;14.49;90.69
11985;BME280;6052;53.246;10.368;2023-05-25T05:21:44;102050.50;;;14.34;91.08
11985;BME280;6052;53.246;10.368;2023-05-25T05:24:16;102052.69;;;14.55;89.58
11985;BME280;6052;53.246;10.368;2023-05-25T05:26:46;102053.28;;;14.28;91.14
11985;BME280;6052;53.246;10.368;2023-05-25T05:29:24;102052.09;;;14.24;90.82
11985;BME280;6052;53.246;10.368;2023-05-25T05:31:54;102052.94;;;14.36;90.93
11985;BME280;6052;53.246;10.368;2023-05-25T05:34:24;102059.03;;;14.49;90.28
11985;BME280;6052;53.246;10.368;2023-05-25T05:36:53;102058.97;;;14.38;90.69
11985;BME280;6052;53.246;10.368;2023-05-25T05:39:27;102051.50;;;14.51;90.64
11985;BME280;6052;53.246;10.368;2023-05-25T05:41:56;102052.06;;;14.53;90.05
11985;BME280;6052;53.246;10.368;2023-05-25T05:44:30;102054.34;;;14.27;91.35
11985;BME280;6052;53.246;10.368;2023-05-25T05:46:59;102057.66;;;14.58;89.82
11985;BME280;6052;53.246;10.368;2023-05-25T05:49:29;102060.13;;;14.71;88.53
11985;BME280;6052;53.246;10.368;2023-05-25T05:52:01;102072.53;;;14.49;90.10
11985;BME280;6052;53.246;10.368;2023-05-25T05:54:34;102070.06;;;14.12;92.84
11985;BME280;6052;53.246;10.368;2023-05-25T05:57:03;102070.28;;;14.46;91.44
11985;BME280;6052;53.246;10.368;2023-05-25T05:59:33;102071.75;;;14.60;90.31
11985;BME280;6052;53.246;10.368;2023-05-25T06:02:03;102073.25;;;14.27;90.76
11985;BME280;6052;53.246;10.368;2023-05-25T06:04:33;102072.13;;;14.46;90.59
11985;BME280;6052;53.246;10.368;2023-05-25T06:07:04;102075.13;;;14.26;91.20
11985;BME280;6052;53.246;10.368;2023-05-25T06:09:36;102083.06;;;14.39;90.90
11985;BME280;6052;53.246;10.368;2023-05-25T06:12:06;102082.91;;;14.34;90.92
11985;BME280;6052;53.246;10.368;2023-05-25T06:14:36;102083.41;;;14.43;89.71
11985;BME280;6052;53.246;10.368;2023-05-25T06:17:05;102084.06;;;14.56;88.83
11985;BME280;6052;53.246;10.368;2023-05-25T06:19:35;102082.78;;;14.59;87.75
11985;BME280;6052;53.246;10.368;2023-05-25T06:22:04;102094.38;;;14.48;88.89
11985;BME280;6052;53.246;10.368;2023-05-25T06:24:36;102091.19;;;14.51;88.23
11985;BME280;6052;53.246;10.368;2023-05-25T06:27:06;102096.44;;;14.64;87.50
11985;BME280;6052;53.246;10.368;2023-05-25T06:29:35;102091.84;;;14.64;88.00
11985;BME280;6052;53.246;10.368;2023-05-25T06:32:05;102096.13;;;14.72;87.54
11985;BME280;6052;53.246;10.368;2023-05-25T06:34:36;102104.97;;;14.49;88.63
11985;BME280;6052;53.246;10.368;2023-05-25T06:37:06;102106.84;;;14.31;89.47
11985;BME280;6052;53.246;10.368;2023-05-25T06:39:38;102102.03;;;14.15;90.10
11985;BME280;6052;53.246;10.368;2023-05-25T06:42:08;102109.97;;;14.46;88.99
11985;BME280;6052;53.246;10.368;2023-05-25T06:44:38;102111.78;;;14.34;88.73
11985;BME280;6052;53.246;10.368;2023-05-25T06:47:07;102110.16;;;14.33;89.51
11985;BME280;6052;53.246;10.368;2023-05-25T06:49:37;102111.16;;;14.50;87.85
11985;BME280;6052;53.246;10.368;2023-05-25T06:52:06;102119.69;;;14.65;87.58
11985;BME280;6052;53.246;10.368;2023-05-25T06:54:38;102114.41;;;14.58;87.01
11985;BME280;6052;53.246;10.368;2023-05-25T06:57:08;102121.50;;;14.71;86.66
11985;BME280;6052;53.246;10.368;2023-05-25T06:59:37;102121.97;;;14.50;87.46
11985;BME280;6052;53.246;10.368;2023-05-25T07:02:06;102119.16;;;14.27;88.44
11985;BME280;6052;53.246;10.368;2023-05-25T07:04:36;102112.72;;;14.57;87.83
11985;BME280;6052;53.246;10.368;2023-05-25T07:07:05;102123.88;;;14.79;87.13
11985;BME280;6052;53.246;10.368;2023-05-25T07:09:37;102113.47;;;14.64;87.78
11985;BME280;6052;53.246;10.368;2023-05-25T07:12:07;102113.41;;;14.71;88.04
11985;BME280;6052;53.246;10.368;2023-05-25T07:14:38;102113.13;;;14.72;86.78
11985;BME280;6052;53.246;10.368;2023-05-25T07:17:08;102116.47;;;14.74;86.85
11985;BME280;6052;53.246;10.368;2023-05-25T07:19:38;102121.63;;;14.76;87.19
11985;BME280;6052;53.246;10.368;2023-05-25T07:22:08;102121.50;;;14.71;86.70
11985;BME280;6052;53.246;10.368;2023-05-25T07:24:40;102117.59;;;14.67;86.46
11985;BME280;6052;53.246;10.368;2023-05-25T07:27:10;102118.53;;;14.72;86.83
11985;BME280;6052;53.246;10.368;2023-05-25T07:29:40;102118.97;;;14.58;87.48
11985;BME280;6052;53.246;10.368;2023-05-25T07:32:09;102125.91;;;14.83;86.56
11985;BME280;6052;53.246;10.368;2023-05-25T07:34:38;102128.47;;;14.90;86.07
11985;BME280;6052;53.246;10.368;2023-05-25T07:37:08;102124.00;;;14.84;85.83
11985;BME280;6052;53.246;10.368;2023-05-25T07:39:37;102118.78;;;15.00;87.55
11985;BME280;6052;53.246;10.368;2023-05-25T07:42:10;102120.19;;;15.03;87.98
11985;BME280;6052;53.246;10.368;2023-05-25T07:44:46;102122.50;;;14.88;88.15
11985;BME280;6052;53.246;10.368;2023-05-25T07:47:16;102125.50;;;15.09;87.83
11985;BME280;6052;53.246;10.368;2023-05-25T07:49:45;102122.47;;;15.29;86.83
11985;BME280;6052;53.246;10.368;2023-05-25T07:52:15;102127.88;;;15.29;90.01
11985;BME280;6052;53.246;10.368;2023-05-25T07:54:45;102119.69;;;15.35;86.59
11985;BME280;6052;53.246;10.368;2023-05-25T07:57:17;102132.84;;;15.32;85.42
11985;BME280;6052;53.246;10.368;2023-05-25T07:59:47;102130.19;;;15.43;84.60
11985;BME280;6052;53.246;10.368;2023-05-25T08:02:16;102131.00;;;15.55;85.20
11985;BME280;6052;53.246;10.368;2023-05-25T08:04:46;102129.38;;;15.66;87.11
11985;BME280;6052;53.246;10.368;2023-05-25T08:07:17;102127.25;;;15.45;87.60
11985;BME280;6052;53.246;10.368;2023-05-25T08:09:47;102135.72;;;15.60;87.41
11985;BME280;6052;53.246;10.368;2023-05-25T08:12:19;102126.78;;;15.71;86.63
11985;BME280;6052;53.246;10.368;2023-05-25T08:15:08;102124.66;;;15.73;84.16
11985;BME280;6052;53.246;10.368;2023-05-25T08:17:39;102127.00;;;16.04;85.41
11985;BME280;6052;53.246;10.368;2023-05-25T08:20:09;102119.94;;;16.03;85.36
11985;BME280;6052;53.246;10.368;2023-05-25T08:22:39;102122.47;;;16.21;86.26
11985;BME280;6052;53.246;10.368;2023-05-25T08:25:09;102123.13;;;16.00;83.16
11985;BME280;6052;53.246;10.368;2023-05-25T08:27:41;102122.78;;;15.96;83.84
11985;BME280;6052;53.246;10.368;2023-05-25T08:30:11;102123.25;;;15.82;83.56
11985;BME280;6052;53.246;10.368;2023-05-25T08:32:40;102127.13;;;16.09;84.27
11985;BME280;6052;53.246;10.368;2023-05-25T08:35:10;102135.38;;;16.02;85.15
11985;BME280;6052;53.246;10.368;2023-05-25T08:37:40;102132.53;;;15.97;83.36
11985;BME280;6052;53.246;10.368;2023-05-25T08:40:13;102134.78;;;15.89;82.67
11985;BME280;6052;53.246;10.368;2023-05-25T08:42:46;102137.63;;;15.82;82.38
11985;BME280;6052;53.246;10.368;2023-05-25T08:45:15;102131.97;;;15.95;81.78
11985;BME280;6052;53.246;10.368;2023-05-25T08:48:00;102133.22;;;16.16;81.24
11985;BME280;6052;53.246;10.368;2023-05-25T08:50:31;102140.47;;;16.38;80.54
11985;BME280;6052;53.246;10.368;2023-05-25T08:53:03;102133.28;;;16.55;80.99
11985;BME280;6052;53.246;10.368;2023-05-25T08:55:36;102136.84;;;16.44;79.94
11985;BME280;6052;53.246;10.368;2023-05-25T08:58:15;102143.97;;;16.62;79.57
11985;BME280;6052;53.246;10.368;2023-05-25T09:00:49;102137.97;;;16.60;79.32
11985;BME280;6052;53.246;10.368;2023-05-25T09:03:21;102140.56;;;16.55;80.02
11985;BME280;6052;53.246;10.368;2023-05-25T09:05:53;102138.59;;;16.50;79.27
11985;BME280;6052;53.246;10.368;2023-05-25T09:08:24;102145.56;;;16.46;77.31
11985;BME280;6052;53.246;10.368;2023-05-25T09:10:55;102141.66;;;16.82;79.39
11985;BME280;6052;53.246;10.368;2023-05-25T09:13:27;102144.59;;;16.80;78.59
11985;BME280;6052;53.246;10.368;2023-05-25T09:15:57;102141.06;;;17.08;77.89
11985;BME280;6052;53.246;10.368;2023-05-25T09:18:27;102136.59;;;17.02;77.70
11985;BME280;6052;53.246;10.368;2023-05-25T09:20:57;102146.81;;;16.95;77.12
11985;BME280;6052;53.246;10.368;2023-05-25T09:23:27;102129.56;;;17.17;76.65
11985;BME280;6052;53.246;10.368;2023-05-25T09:25:56;102128.97;;;17.15;77.82
11985;BME280;6052;53.246;10.368;2023-05-25T09:28:29;102139.03;;;17.15;77.32
11985;BME280;6052;53.246;10.368;2023-05-25T09:30:58;102137.22;;;17.37;76.83
11985;BME280;6052;53.246;10.368;2023-05-25T09:33:29;102138.50;;;17.18;74.74
11985;BME280;6052;53.246;10.368;2023-05-25T09:36:01;102134.41;;;17.15;74.76
11985;BME280;6052;53.246;10.368;2023-05-25T09:38:31;102134.91;;;17.29;75.52
11985;BME280;6052;53.246;10.368;2023-05-25T09:41:02;102147.44;;;17.63;74.68
11985;BME280;6052;53.246;10.368;2023-05-25T09:43:35;102144.69;;;17.41;73.99
11985;BME280;6052;53.246;10.368;2023-05-25T09:46:19;102141.59;;;17.71;74.77
11985;BME280;6052;53.246;10.368;2023-05-25T09:48:49;102140.13;;;17.63;73.56
11985;BME280;6052;53.246;10.368;2023-05-25T09:51:19;102140.03;;;17.75;74.46
11985;BME280;6052;53.246;10.368;2023-05-25T09:53:49;102142.34;;;17.83;74.86
11985;BME280;6052;53.246;10.368;2023-05-25T09:56:20;102140.19;;;17.85;73.27
11985;BME280;6052;53.246;10.368;2023-05-25T09:58:53;102141.03;;;17.85;73.08
11985;BME280;6052;53.246;10.368;2023-05-25T10:01:24;102140.81;;;17.92;73.21
11985;BME280;6052;53.246;10.368;2023-05-25T10:03:54;102140.63;;;18.15;72.71
11985;BME280;6052;53.246;10.368;2023-05-25T10:06:31;102147.50;;;17.84;71.75
11985;BME280;6052;53.246;10.368;2023-05-25T10:09:02;102145.94;;;17.88;70.73
11985;BME280;6052;53.246;10.368;2023-05-25T10:11:33;102149.19;;;18.07;70.65
11985;BME280;6052;53.246;10.368;2023-05-25T10:14:06;102155.69;;;18.06;69.97
11985;BME280;6052;53.246;10.368;2023-05-25T10:16:38;102157.13;;;18.30;71.01
11985;BME280;6052;53.246;10.368;2023-05-25T10:19:12;102160.13;;;17.90;69.48
11985;BME280;6052;53.246;10.368;2023-05-25T10:21:47;102161.34;;;18.21;70.31
11985;BME280;6052;53.246;10.368;2023-05-25T10:24:23;102164.06;;;18.21;69.16
11985;BME280;6052;53.246;10.368;2023-05-25T10:26:58;102171.97;;;18.39;68.37
11985;BME280;6052;53.246;10.368;2023-05-25T10:29:43;102169.50;;;18.37;68.65
11985;BME280;6052;53.246;10.368;2023-05-25T10:32:15;102161.56;;;18.79;68.36
11985;BME280;6052;53.246;10.368;2023-05-25T10:34:45;102165.19;;;18.63;68.06
11985;BME280;6052;53.246;10.368;2023-05-25T10:37:15;102168.66;;;18.80;67.47
11985;BME280;6052;53.246;10.368;2023-05-25T10:39:45;102170.47;;;18.48;65.82
11985;BME280;6052;53.246;10.368;2023-05-25T10:42:17;102161.22;;;18.49;66.94
11985;BME280;6052;53.246;10.368;2023-05-25T10:44:49;102160.59;;;18.90;66.87
11985;BME280;6052;53.246;10.368;2023-05-25T10:47:19;102155.63;;;18.82;65.59
11985;BME280;6052;53.246;10.368;2023-05-25T10:49:53;102153.09;;;18.75;66.01
11985;BME280;6052;53.246;10.368;2023-05-25T10:52:26;102151.31;;;18.86;65.96
11985;BME280;6052;53.246;10.368;2023-05-25T10:54:56;102152.91;;;18.82;65.79
11985;BME280;6052;53.246;10.368;2023-05-25T10:57:27;102160.44;;;19.23;64.00
11985;BME280;6052;53.246;10.368;2023-05-25T11:00:04;102157.97;;;18.95;63.71
11985;BME280;6052;53.246;10.368;2023-05-25T11:02:49;102145.00;;;19.07;63.62
11985;BME280;6052;53.246;10.368;2023-05-25T11:05:35;102154.00;;;18.81;63.58
11985;BME280;6052;53.246;10.368;2023-05-25T11:08:05;102148.16;;;19.52;62.00
11985;BME280;6052;53.246;10.368;2023-05-25T11:10:49;102138.81;;;18.90;61.84
11985;BME280;6052;53.246;10.368;2023-05-25T11:13:20;102149.88;;;19.05;62.40
11985;BME280;6052;53.246;10.368;2023-05-25T11:16:14;102149.56;;;19.01;62.36
11985;BME280;6052;53.246;10.368;2023-05-25T11:18:49;102140.00;;;18.72;60.70
11985;BME280;6052;53.246;10.368;2023-05-25T11:21:40;102137.38;;;18.82;62.46
11985;BME280;6052;53.246;10.368;2023-05-25T11:24:12;102140.09;;;19.09;63.14
11985;BME280;6052;53.246;10.368;2023-05-25T11:26:56;102149.53;;;19.23;62.93
11985;BME280;6052;53.246;10.368;2023-05-25T11:29:30;102140.72;;;19.42;63.57
11985;BME280;6052;53.246;10.368;2023-05-25T11:32:04;102139.34;;;19.40;62.58
11985;BME280;6052;53.246;10.368;2023-05-25T11:34:36;102142.88;;;19.14;62.52
11985;BME280;6052;53.246;10.368;2023-05-25T11:37:07;102143.63;;;19.31;62.48
11985;BME280;6052;53.246;10.368;2023-05-25T11:39:38;102146.25;;;19.52;60.51
11985;BME280;6052;53.246;10.368;2023-05-25T11:42:08;102136.34;;;19.36;61.16
11985;BME280;6052;53.246;10.368;2023-05-25T11:44:39;102138.84;;;19.48;60.55
11985;BME280;6052;53.246;10.368;2023-05-25T11:47:12;102129.81;;;19.74;63.02
11985;BME280;6052;53.246;10.368;2023-05-25T11:49:46;102128.50;;;19.81;61.44
11985;BME280;6052;53.246;10.368;2023-05-25T11:52:17;102136.34;;;19.73;60.46
11985;BME280;6052;53.246;10.368;2023-05-25T11:54:47;102148.53;;;20.07;59.68
11985;BME280;6052;53.246;10.368;2023-05-25T11:57:20;102137.19;;;19.42;59.57
11985;BME280;6052;53.246;10.368;2023-05-25T11:59:52;102125.84;;;19.55;58.63
11985;BME280;6052;53.246;10.368;2023-05-25T12:02:25;102128.00;;;19.53;60.22
11985;BME280;6052;53.246;10.368;2023-05-25T12:04:56;102127.81;;;19.64;60.35
11985;BME280;6052;53.246;10.368;2023-05-25T12:07:28;102123.06;;;19.45;60.40
11985;BME280;6052;53.246;10.368;2023-05-25T12:10:04;102123.56;;;19.42;60.96
11985;BME280;6052;53.246;10.368;2023-05-25T12:12:39;102114.59;;;19.41;61.30
11985;BME280;6052;53.246;10.368;2023-05-25T12:15:10;102112.81;;;19.62;60.62
11985;BME280;6052;53.246;10.368;2023-05-25T12:17:43;102113.41;;;19.69;60.55
11985;BME280;6052;53.246;10.368;2023-05-25T12:20:15;102100.69;;;19.84;60.90
11985;BME280;6052;53.246;10.368;2023-05-25T12:22:45;102116.19;;;20.20;60.03
11985;BME280;6052;53.246;10.368;2023-05-25T12:25:18;102104.19;;;19.75;59.76
11985;BME280;6052;53.246;10.368;2023-05-25T12:28:10;102111.75;;;19.68;60.09
11985;BME280;6052;53.246;10.368;2023-05-25T12:30:40;102121.13;;;19.82;58.69
11985;BME280;6052;53.246;10.368;2023-05-25T12:33:14;102117.16;;;20.04;58.86
11985;BME280;6052;53.246;10.368;2023-05-25T12:35:44;102113.94;;;19.66;60.26
11985;BME280;6052;53.246;10.368;2023-05-25T12:38:16;102114.00;;;20.22;60.39
11985;BME280;6052;53.246;10.368;2023-05-25T12:40:47;102116.00;;;19.90;61.65
11985;BME280;6052;53.246;10.368;2023-05-25T12:43:36;102108.53;;;19.76;61.26
11985;BME280;6052;53.246;10.368;2023-05-25T12:46:08;102113.16;;;19.70;60.67
11985;BME280;6052;53.246;10.368;2023-05-25T12:48:40;102110.84;;;19.94;61.48
11985;BME280;6052;53.246;10.368;2023-05-25T12:51:10;102110.06;;;20.03;61.78
11985;BME280;6052;53.246;10.368;2023-05-25T12:53:47;102115.22;;;20.00;60.54
11985;BME280;6052;53.246;10.368;2023-05-25T12:56:17;102116.47;;;19.77;60.38
11985;BME280;6052;53.246;10.368;2023-05-25T12:58:48;102103.09;;;19.76;60.44
11985;BME280;6052;53.246;10.368;2023-05-25T13:01:17;102108.81;;;19.74;60.26
11985;BME280;6052;53.246;10.368;2023-05-25T13:03:49;102100.34;;;19.71;60.05
11985;BME280;6052;53.246;10.368;2023-05-25T13:06:19;102108.63;;;19.91;60.30
11985;BME280;6052;53.246;10.368;2023-05-25T13:08:48;102112.13;;;19.81;60.21
11985;BME280;6052;53.246;10.368;2023-05-25T13:11:17;102106.41;;;19.78;61.03
11985;BME280;6052;53.246;10.368;2023-05-25T13:13:47;102107.53;;;19.92;61.56